sensor_id;sensor_type;location;lat;lon;timestamp;noise_LAeq;noise_LA_min;noise_LA_max;noise_LA01;noise_LA95
74496;Laerm;62979;55.720;37.606;2023-08-24T00:00:42;40.53;36.58;43.84;;
74496;Laerm;62979;55.720;37.606;2023-08-24T00:03:09;47.29;36.82;59.83;;
74496;Laerm;62979;55.720;37.606;2023-08-24T00:05:36;41.02;36.43;49.29;;
74496;Laerm;62979;55.720;37.606;2023-08-24T00:08:06;45.17;37.70;58.67;;
74496;Laerm;62979;55.720;37.606;2023-08-24T00:10:35;42.31;37.30;51.78;;
74496;Laerm;62979;55.720;37.606;2023-08-24T00:13:03;40.64;36.87;46.62;;
74496;Laerm;62979;55.720;37.606;2023-08-24T00:15:30;47.03;36.98;60.98;;
74496;Laerm;62979;55.720;37.606;2023-08-24T00:17:57;43.20;37.15;55.42;;
74496;Laerm;62979;55.720;37.606;2023-08-24T00:20:24;40.17;36.90;45.55;;
74496;Laerm;62979;55.720;37.606;2023-08-24T00:22:52;45.26;37.28;56.80;;
74496;Laerm;62979;55.720;37.606;2023-08-24T00:25:21;41.12;36.66;49.79;;
74496;Laerm;62979;55.720;37.606;2023-08-24T00:27:48;41.33;36.47;51.58;;
74496;Laerm;62979;55.720;37.606;2023-08-24T00:30:15;40.23;36.44;45.58;;
74496;Laerm;62979;55.720;37.606;2023-08-24T00:32:42;41.12;35.74;49.57;;
74496;Laerm;62979;55.720;37.606;2023-08-24T00:35:10;44.93;36.87;57.97;;
74496;Laerm;62979;55.720;37.606;2023-08-24T00:37:38;40.40;36.50;44.70;;
74496;Laerm;62979;55.720;37.606;2023-08-24T00:40:07;39.32;35.54;42.63;;
74496;Laerm;62979;55.720;37.606;2023-08-24T00:42:39;39.75;36.09;42.86;;
74496;Laerm;62979;55.720;37.606;2023-08-24T00:45:08;40.46;35.88;46.72;;
74496;Laerm;62979;55.720;37.606;2023-08-24T00:47:36;43.45;36.52;55.17;;
74496;Laerm;62979;55.720;37.606;2023-08-24T00:50:06;40.67;35.98;51.99;;
74496;Laerm;62979;55.720;37.606;2023-08-24T00:52:36;41.45;36.11;50.56;;
74496;Laerm;62979;55.720;37.606;2023-08-24T00:55:05;39.22;35.48;43.55;;
74496;Laerm;62979;55.720;37.606;2023-08-24T00:57:32;40.13;36.28;45.73;;
74496;Laerm;62979;55.720;37.606;2023-08-24T01:00:04;39.68;35.50;46.58;;
74496;Laerm;62979;55.720;37.606;2023-08-24T01:02:34;58.51;36.51;79.45;;
74496;Laerm;62979;55.720;37.606;2023-08-24T01:05:01;42.85;36.48;53.64;;
74496;Laerm;62979;55.720;37.606;2023-08-24T01:07:30;39.22;35.67;43.63;;
74496;Laerm;62979;55.720;37.606;2023-08-24T01:09:58;40.36;36.85;45.66;;
74496;Laerm;62979;55.720;37.606;2023-08-24T01:12:34;39.74;35.95;51.68;;
74496;Laerm;62979;55.720;37.606;2023-08-24T01:15:13;40.49;35.33;57.84;;
74496;Laerm;62979;55.720;37.606;2023-08-24T01:17:43;38.86;35.43;42.29;;
74496;Laerm;62979;55.720;37.606;2023-08-24T01:20:11;43.95;35.01;57.97;;
74496;Laerm;62979;55.720;37.606;2023-08-24T01:22:49;43.89;35.45;59.71;;
74496;Laerm;62979;55.720;37.606;2023-08-24T01:25:32;40.66;35.10;55.49;;
74496;Laerm;62979;55.720;37.606;2023-08-24T01:28:06;38.60;34.89;47.31;;
74496;Laerm;62979;55.720;37.606;2023-08-24T01:30:36;42.31;35.32;51.02;;
74496;Laerm;62979;55.720;37.606;2023-08-24T01:33:04;42.60;35.63;57.76;;
74496;Laerm;62979;55.720;37.606;2023-08-24T01:35:31;38.76;35.12;48.56;;
74496;Laerm;62979;55.720;37.606;2023-08-24T01:37:59;46.83;34.77;63.34;;
74496;Laerm;62979;55.720;37.606;2023-08-24T01:40:43;40.94;35.22;58.90;;
74496;Laerm;62979;55.720;37.606;2023-08-24T01:43:15;43.62;35.14;56.67;;
74496;Laerm;62979;55.720;37.606;2023-08-24T01:45:45;43.93;35.01;56.76;;
74496;Laerm;62979;55.720;37.606;2023-08-24T01:48:14;38.85;34.41;58.49;;
74496;Laerm;62979;55.720;37.606;2023-08-24T01:50:41;39.94;35.78;49.68;;
74496;Laerm;62979;55.720;37.606;2023-08-24T01:53:09;38.79;34.88;48.20;;
74496;Laerm;62979;55.720;37.606;2023-08-24T01:55:37;48.42;35.56;60.55;;
74496;Laerm;62979;55.720;37.606;2023-08-24T01:58:03;48.55;35.29;62.53;;
74496;Laerm;62979;55.720;37.606;2023-08-24T02:00:32;44.79;35.40;57.80;;
74496;Laerm;62979;55.720;37.606;2023-08-24T02:02:59;39.28;34.84;50.70;;
74496;Laerm;62979;55.720;37.606;2023-08-24T02:05:26;39.88;35.12;51.41;;
74496;Laerm;62979;55.720;37.606;2023-08-24T02:07:54;42.84;34.80;55.05;;
74496;Laerm;62979;55.720;37.606;2023-08-24T02:10:23;39.24;35.65;47.83;;
74496;Laerm;62979;55.720;37.606;2023-08-24T02:12:51;44.92;35.52;59.57;;
74496;Laerm;62979;55.720;37.606;2023-08-24T02:15:18;41.19;37.15;53.08;;
74496;Laerm;62979;55.720;37.606;2023-08-24T02:17:46;46.09;37.05;58.37;;
74496;Laerm;62979;55.720;37.606;2023-08-24T02:20:13;41.04;36.43;54.28;;
74496;Laerm;62979;55.720;37.606;2023-08-24T02:22:41;44.22;37.06;56.00;;
74496;Laerm;62979;55.720;37.606;2023-08-24T02:25:09;39.74;35.13;49.15;;
74496;Laerm;62979;55.720;37.606;2023-08-24T02:27:36;41.80;36.05;57.67;;
74496;Laerm;62979;55.720;37.606;2023-08-24T02:30:05;45.88;35.00;60.31;;
74496;Laerm;62979;55.720;37.606;2023-08-24T02:32:32;40.32;36.08;52.92;;
74496;Laerm;62979;55.720;37.606;2023-08-24T02:35:00;47.82;35.27;66.77;;
74496;Laerm;62979;55.720;37.606;2023-08-24T02:37:28;47.64;35.69;67.24;;
74496;Laerm;62979;55.720;37.606;2023-08-24T02:39:55;44.81;35.22;61.16;;
74496;Laerm;62979;55.720;37.606;2023-08-24T02:42:22;40.06;35.70;52.95;;
74496;Laerm;62979;55.720;37.606;2023-08-24T02:44:49;39.65;35.49;54.60;;
74496;Laerm;62979;55.720;37.606;2023-08-24T02:47:16;47.61;36.25;59.22;;
74496;Laerm;62979;55.720;37.606;2023-08-24T02:49:43;41.58;35.75;53.93;;
74496;Laerm;62979;55.720;37.606;2023-08-24T02:52:11;46.77;36.31;61.46;;
74496;Laerm;62979;55.720;37.606;2023-08-24T02:54:38;44.56;36.52;54.38;;
74496;Laerm;62979;55.720;37.606;2023-08-24T02:57:05;43.88;35.46;55.38;;
74496;Laerm;62979;55.720;37.606;2023-08-24T02:59:32;48.75;37.37;59.08;;
74496;Laerm;62979;55.720;37.606;2023-08-24T03:01:59;49.79;36.89;61.01;;
74496;Laerm;62979;55.720;37.606;2023-08-24T03:04:27;42.78;35.74;57.15;;
74496;Laerm;62979;55.720;37.606;2023-08-24T03:06:54;47.06;36.25;63.56;;
74496;Laerm;62979;55.720;37.606;2023-08-24T03:09:22;49.98;37.55;62.62;;
74496;Laerm;62979;55.720;37.606;2023-08-24T03:11:49;46.74;36.32;64.17;;
74496;Laerm;62979;55.720;37.606;2023-08-24T03:14:16;44.40;36.44;63.96;;
74496;Laerm;62979;55.720;37.606;2023-08-24T03:16:44;49.55;36.61;60.73;;
74496;Laerm;62979;55.720;37.606;2023-08-24T03:19:11;47.80;37.79;61.53;;
74496;Laerm;62979;55.720;37.606;2023-08-24T03:21:40;45.51;37.75;57.25;;
74496;Laerm;62979;55.720;37.606;2023-08-24T03:24:06;52.05;39.13;62.57;;
74496;Laerm;62979;55.720;37.606;2023-08-24T03:26:35;56.36;37.75;75.96;;
74496;Laerm;62979;55.720;37.606;2023-08-24T03:29:02;47.08;38.37;59.31;;
74496;Laerm;62979;55.720;37.606;2023-08-24T03:31:29;46.85;38.92;57.75;;
74496;Laerm;62979;55.720;37.606;2023-08-24T03:33:56;44.39;38.35;51.26;;
74496;Laerm;62979;55.720;37.606;2023-08-24T03:36:23;45.09;38.07;64.36;;
74496;Laerm;62979;55.720;37.606;2023-08-24T03:38:50;51.73;37.45;68.28;;
74496;Laerm;62979;55.720;37.606;2023-08-24T03:41:16;49.93;38.69;62.41;;
74496;Laerm;62979;55.720;37.606;2023-08-24T03:43:45;51.53;39.87;69.36;;
74496;Laerm;62979;55.720;37.606;2023-08-24T03:46:12;49.92;39.24;59.34;;
74496;Laerm;62979;55.720;37.606;2023-08-24T03:48:39;49.46;39.80;67.27;;
74496;Laerm;62979;55.720;37.606;2023-08-24T03:51:06;49.91;42.40;60.69;;
74496;Laerm;62979;55.720;37.606;2023-08-24T03:53:32;48.82;42.62;66.61;;
74496;Laerm;62979;55.720;37.606;2023-08-24T03:55:59;49.07;41.48;58.28;;
74496;Laerm;62979;55.720;37.606;2023-08-24T03:58:26;52.31;39.75;60.18;;
74496;Laerm;62979;55.720;37.606;2023-08-24T04:00:55;45.16;39.66;52.04;;
74496;Laerm;62979;55.720;37.606;2023-08-24T04:03:23;51.23;41.88;61.45;;
74496;Laerm;62979;55.720;37.606;2023-08-24T04:05:50;49.53;37.76;61.63;;
74496;Laerm;62979;55.720;37.606;2023-08-24T04:08:17;56.77;44.59;76.19;;
74496;Laerm;62979;55.720;37.606;2023-08-24T04:10:44;59.31;47.28;73.16;;
74496;Laerm;62979;55.720;37.606;2023-08-24T04:13:11;61.86;50.02;87.75;;
74496;Laerm;62979;55.720;37.606;2023-08-24T04:15:38;57.93;41.54;73.29;;
74496;Laerm;62979;55.720;37.606;2023-08-24T04:18:06;51.26;41.66;61.69;;
74496;Laerm;62979;55.720;37.606;2023-08-24T04:20:33;52.06;39.39;60.93;;
74496;Laerm;62979;55.720;37.606;2023-08-24T04:23:01;52.76;42.10;62.10;;
74496;Laerm;62979;55.720;37.606;2023-08-24T04:25:28;52.97;41.69;64.35;;
74496;Laerm;62979;55.720;37.606;2023-08-24T04:27:55;51.76;41.25;59.85;;
74496;Laerm;62979;55.720;37.606;2023-08-24T04:30:22;54.69;42.82;62.09;;
74496;Laerm;62979;55.720;37.606;2023-08-24T04:32:49;54.08;49.67;61.08;;
74496;Laerm;62979;55.720;37.606;2023-08-24T04:35:18;54.13;50.02;63.29;;
74496;Laerm;62979;55.720;37.606;2023-08-24T04:37:45;54.29;50.47;61.18;;
74496;Laerm;62979;55.720;37.606;2023-08-24T04:40:12;55.08;50.17;66.32;;
74496;Laerm;62979;55.720;37.606;2023-08-24T04:42:39;56.54;51.20;60.92;;
74496;Laerm;62979;55.720;37.606;2023-08-24T04:45:07;58.69;55.05;63.51;;
74496;Laerm;62979;55.720;37.606;2023-08-24T04:47:35;57.95;52.89;67.89;;
74496;Laerm;62979;55.720;37.606;2023-08-24T04:50:01;56.88;47.18;71.02;;
74496;Laerm;62979;55.720;37.606;2023-08-24T04:52:31;64.01;54.75;71.67;;
74496;Laerm;62979;55.720;37.606;2023-08-24T04:54:59;56.24;49.14;65.75;;
74496;Laerm;62979;55.720;37.606;2023-08-24T04:57:25;58.21;44.43;77.40;;
74496;Laerm;62979;55.720;37.606;2023-08-24T04:59:53;52.83;41.46;62.34;;
74496;Laerm;62979;55.720;37.606;2023-08-24T05:02:19;53.55;41.62;64.37;;
74496;Laerm;62979;55.720;37.606;2023-08-24T05:04:46;57.57;43.48;72.18;;
74496;Laerm;62979;55.720;37.606;2023-08-24T05:07:14;53.54;45.18;62.94;;
74496;Laerm;62979;55.720;37.606;2023-08-24T05:09:42;52.10;43.43;64.24;;
74496;Laerm;62979;55.720;37.606;2023-08-24T05:12:09;55.03;44.57;69.53;;
74496;Laerm;62979;55.720;37.606;2023-08-24T05:14:35;53.76;42.69;63.77;;
74496;Laerm;62979;55.720;37.606;2023-08-24T05:17:02;54.78;41.72;64.47;;
74496;Laerm;62979;55.720;37.606;2023-08-24T05:19:30;53.82;45.92;62.43;;
74496;Laerm;62979;55.720;37.606;2023-08-24T05:21:57;56.08;48.49;64.14;;
74496;Laerm;62979;55.720;37.606;2023-08-24T05:24:24;55.33;47.42;69.81;;
74496;Laerm;62979;55.720;37.606;2023-08-24T05:26:52;57.95;46.60;74.10;;
74496;Laerm;62979;55.720;37.606;2023-08-24T05:29:19;56.40;47.25;76.37;;
74496;Laerm;62979;55.720;37.606;2023-08-24T05:31:46;57.67;47.34;66.03;;
74496;Laerm;62979;55.720;37.606;2023-08-24T05:34:12;55.38;45.56;63.21;;
74496;Laerm;62979;55.720;37.606;2023-08-24T05:36:39;55.44;46.92;66.59;;
74496;Laerm;62979;55.720;37.606;2023-08-24T05:39:06;54.91;45.07;63.02;;
74496;Laerm;62979;55.720;37.606;2023-08-24T05:41:34;54.32;47.09;61.92;;
74496;Laerm;62979;55.720;37.606;2023-08-24T05:44:04;55.34;46.03;66.76;;
74496;Laerm;62979;55.720;37.606;2023-08-24T05:46:30;55.15;44.46;64.07;;
74496;Laerm;62979;55.720;37.606;2023-08-24T05:48:58;59.83;47.36;75.61;;
74496;Laerm;62979;55.720;37.606;2023-08-24T05:51:26;57.94;47.11;72.11;;
74496;Laerm;62979;55.720;37.606;2023-08-24T05:53:53;57.72;46.91;69.27;;
74496;Laerm;62979;55.720;37.606;2023-08-24T05:56:23;57.18;50.43;67.31;;
74496;Laerm;62979;55.720;37.606;2023-08-24T05:58:50;56.38;47.04;74.64;;
74496;Laerm;62979;55.720;37.606;2023-08-24T06:01:18;57.17;46.40;72.96;;
74496;Laerm;62979;55.720;37.606;2023-08-24T06:03:45;54.97;43.62;69.45;;
74496;Laerm;62979;55.720;37.606;2023-08-24T06:06:12;56.89;46.35;75.15;;
74496;Laerm;62979;55.720;37.606;2023-08-24T06:08:40;56.78;48.32;70.83;;
74496;Laerm;62979;55.720;37.606;2023-08-24T06:11:06;56.15;48.35;72.53;;
74496;Laerm;62979;55.720;37.606;2023-08-24T06:13:33;58.05;46.25;77.04;;
74496;Laerm;62979;55.720;37.606;2023-08-24T06:16:00;54.87;46.24;64.21;;
74496;Laerm;62979;55.720;37.606;2023-08-24T06:18:29;55.73;48.70;64.43;;
74496;Laerm;62979;55.720;37.606;2023-08-24T06:20:56;55.86;47.39;63.46;;
74496;Laerm;62979;55.720;37.606;2023-08-24T06:23:23;56.16;48.06;68.87;;
74496;Laerm;62979;55.720;37.606;2023-08-24T06:25:51;55.27;46.78;63.80;;
74496;Laerm;62979;55.720;37.606;2023-08-24T06:28:18;55.63;46.80;64.66;;
74496;Laerm;62979;55.720;37.606;2023-08-24T06:30:44;55.70;47.59;64.66;;
74496;Laerm;62979;55.720;37.606;2023-08-24T06:33:13;56.44;47.20;69.15;;
74496;Laerm;62979;55.720;37.606;2023-08-24T06:35:41;55.01;46.98;64.82;;
74496;Laerm;62979;55.720;37.606;2023-08-24T06:38:08;58.35;49.12;71.46;;
74496;Laerm;62979;55.720;37.606;2023-08-24T06:40:35;57.11;49.35;80.81;;
74496;Laerm;62979;55.720;37.606;2023-08-24T06:43:02;57.10;47.67;68.55;;
74496;Laerm;62979;55.720;37.606;2023-08-24T06:45:31;56.35;49.39;69.19;;
74496;Laerm;62979;55.720;37.606;2023-08-24T06:47:58;57.74;51.14;77.32;;
74496;Laerm;62979;55.720;37.606;2023-08-24T06:50:24;57.40;48.80;68.06;;
74496;Laerm;62979;55.720;37.606;2023-08-24T06:52:53;57.35;47.69;77.50;;
74496;Laerm;62979;55.720;37.606;2023-08-24T06:55:20;57.80;49.12;71.64;;
74496;Laerm;62979;55.720;37.606;2023-08-24T06:57:48;53.20;45.35;62.71;;
74496;Laerm;62979;55.720;37.606;2023-08-24T07:00:17;66.17;48.21;82.66;;
74496;Laerm;62979;55.720;37.606;2023-08-24T07:02:46;58.32;47.20;68.28;;
74496;Laerm;62979;55.720;37.606;2023-08-24T07:05:13;56.24;46.95;73.95;;
74496;Laerm;62979;55.720;37.606;2023-08-24T07:07:40;56.99;49.06;73.58;;
74496;Laerm;62979;55.720;37.606;2023-08-24T07:10:10;57.12;49.74;73.11;;
74496;Laerm;62979;55.720;37.606;2023-08-24T07:12:37;57.67;48.12;74.31;;
74496;Laerm;62979;55.720;37.606;2023-08-24T07:15:07;56.42;46.71;73.78;;
74496;Laerm;62979;55.720;37.606;2023-08-24T07:17:34;53.45;46.90;63.93;;
74496;Laerm;62979;55.720;37.606;2023-08-24T07:20:03;54.15;47.48;76.64;;
74496;Laerm;62979;55.720;37.606;2023-08-24T07:22:33;56.85;48.20;67.26;;
74496;Laerm;62979;55.720;37.606;2023-08-24T07:25:00;56.62;48.09;67.91;;
74496;Laerm;62979;55.720;37.606;2023-08-24T07:27:31;55.10;49.04;67.80;;
74496;Laerm;62979;55.720;37.606;2023-08-24T07:29:59;54.83;48.63;61.33;;
74496;Laerm;62979;55.720;37.606;2023-08-24T07:32:26;57.56;49.02;64.84;;
74496;Laerm;62979;55.720;37.606;2023-08-24T07:34:54;54.36;45.91;64.95;;
74496;Laerm;62979;55.720;37.606;2023-08-24T07:37:22;55.85;46.78;73.06;;
74496;Laerm;62979;55.720;37.606;2023-08-24T07:39:49;54.90;46.28;67.73;;
74496;Laerm;62979;55.720;37.606;2023-08-24T07:42:19;54.85;48.17;67.42;;
74496;Laerm;62979;55.720;37.606;2023-08-24T07:44:47;56.58;50.03;70.13;;
74496;Laerm;62979;55.720;37.606;2023-08-24T07:47:14;56.32;50.32;62.30;;
74496;Laerm;62979;55.720;37.606;2023-08-24T07:49:41;57.16;50.74;70.86;;
74496;Laerm;62979;55.720;37.606;2023-08-24T07:52:10;56.48;46.16;66.44;;
74496;Laerm;62979;55.720;37.606;2023-08-24T07:54:38;56.48;47.81;65.31;;
74496;Laerm;62979;55.720;37.606;2023-08-24T07:57:05;60.93;49.87;70.79;;
74496;Laerm;62979;55.720;37.606;2023-08-24T07:59:32;63.81;55.78;76.61;;
74496;Laerm;62979;55.720;37.606;2023-08-24T08:02:00;59.73;49.24;78.39;;
74496;Laerm;62979;55.720;37.606;2023-08-24T08:04:27;60.46;47.73;75.24;;
74496;Laerm;62979;55.720;37.606;2023-08-24T08:06:54;55.37;47.35;64.07;;
74496;Laerm;62979;55.720;37.606;2023-08-24T08:09:21;57.32;50.38;67.46;;
74496;Laerm;62979;55.720;37.606;2023-08-24T08:11:48;55.49;48.15;69.07;;
74496;Laerm;62979;55.720;37.606;2023-08-24T08:14:15;56.19;48.45;68.04;;
74496;Laerm;62979;55.720;37.606;2023-08-24T08:16:42;55.23;48.05;64.93;;
74496;Laerm;62979;55.720;37.606;2023-08-24T08:19:10;57.88;51.73;65.31;;
74496;Laerm;62979;55.720;37.606;2023-08-24T08:21:37;54.85;46.43;64.46;;
74496;Laerm;62979;55.720;37.606;2023-08-24T08:24:04;54.32;47.24;61.91;;
74496;Laerm;62979;55.720;37.606;2023-08-24T08:26:31;56.19;47.56;65.45;;
74496;Laerm;62979;55.720;37.606;2023-08-24T08:28:58;54.16;47.04;64.43;;
74496;Laerm;62979;55.720;37.606;2023-08-24T08:31:25;55.38;47.84;68.43;;
74496;Laerm;62979;55.720;37.606;2023-08-24T08:33:52;56.29;48.79;62.92;;
74496;Laerm;62979;55.720;37.606;2023-08-24T08:36:20;54.41;48.03;63.85;;
74496;Laerm;62979;55.720;37.606;2023-08-24T08:38:47;54.83;48.19;72.76;;
74496;Laerm;62979;55.720;37.606;2023-08-24T08:41:14;55.74;49.37;62.56;;
74496;Laerm;62979;55.720;37.606;2023-08-24T08:43:42;57.36;47.83;71.61;;
74496;Laerm;62979;55.720;37.606;2023-08-24T08:46:09;58.86;47.41;69.28;;
74496;Laerm;62979;55.720;37.606;2023-08-24T08:48:39;56.08;46.14;63.26;;
74496;Laerm;62979;55.720;37.606;2023-08-24T08:51:07;57.06;47.86;66.24;;
74496;Laerm;62979;55.720;37.606;2023-08-24T08:53:36;54.88;48.84;62.06;;
74496;Laerm;62979;55.720;37.606;2023-08-24T08:56:04;57.63;49.21;66.94;;
74496;Laerm;62979;55.720;37.606;2023-08-24T08:58:31;58.66;48.30;70.24;;
74496;Laerm;62979;55.720;37.606;2023-08-24T09:01:03;58.99;50.68;67.67;;
74496;Laerm;62979;55.720;37.606;2023-08-24T09:03:31;55.33;47.12;62.64;;
74496;Laerm;62979;55.720;37.606;2023-08-24T09:05:58;55.42;47.88;67.01;;
74496;Laerm;62979;55.720;37.606;2023-08-24T09:08:26;57.55;49.54;68.96;;
74496;Laerm;62979;55.720;37.606;2023-08-24T09:10:55;55.94;46.15;69.11;;
74496;Laerm;62979;55.720;37.606;2023-08-24T09:13:25;55.01;47.22;65.86;;
74496;Laerm;62979;55.720;37.606;2023-08-24T09:15:52;56.16;48.98;71.72;;
74496;Laerm;62979;55.720;37.606;2023-08-24T09:18:20;55.88;48.74;64.57;;
74496;Laerm;62979;55.720;37.606;2023-08-24T09:20:47;56.81;49.50;65.26;;
74496;Laerm;62979;55.720;37.606;2023-08-24T09:23:18;57.61;49.36;70.55;;
74496;Laerm;62979;55.720;37.606;2023-08-24T09:25:47;55.18;48.46;62.40;;
74496;Laerm;62979;55.720;37.606;2023-08-24T09:28:23;55.85;49.60;64.84;;
74496;Laerm;62979;55.720;37.606;2023-08-24T09:30:52;55.73;49.49;67.86;;
74496;Laerm;62979;55.720;37.606;2023-08-24T09:33:21;57.19;50.40;65.93;;
74496;Laerm;62979;55.720;37.606;2023-08-24T09:35:52;56.58;47.96;65.65;;
74496;Laerm;62979;55.720;37.606;2023-08-24T09:38:22;56.00;46.84;65.86;;
74496;Laerm;62979;55.720;37.606;2023-08-24T09:40:52;56.23;47.98;62.21;;
74496;Laerm;62979;55.720;37.606;2023-08-24T09:43:22;54.45;49.63;62.29;;
74496;Laerm;62979;55.720;37.606;2023-08-24T09:45:50;59.87;46.82;74.70;;
74496;Laerm;62979;55.720;37.606;2023-08-24T09:48:18;53.93;46.17;72.02;;
74496;Laerm;62979;55.720;37.606;2023-08-24T09:50:46;61.34;49.55;74.92;;
74496;Laerm;62979;55.720;37.606;2023-08-24T09:53:17;54.24;46.16;62.73;;
74496;Laerm;62979;55.720;37.606;2023-08-24T09:55:53;55.27;48.93;68.06;;
74496;Laerm;62979;55.720;37.606;2023-08-24T09:58:24;56.74;44.55;66.67;;
74496;Laerm;62979;55.720;37.606;2023-08-24T10:00:51;54.53;47.85;66.21;;
74496;Laerm;62979;55.720;37.606;2023-08-24T10:03:20;56.20;48.50;69.37;;
74496;Laerm;62979;55.720;37.606;2023-08-24T10:05:52;54.20;47.98;63.47;;
74496;Laerm;62979;55.720;37.606;2023-08-24T10:08:26;54.83;46.83;63.12;;
74496;Laerm;62979;55.720;37.606;2023-08-24T10:10:56;60.08;48.36;83.86;;
74496;Laerm;62979;55.720;37.606;2023-08-24T10:13:36;56.10;48.08;65.99;;
74496;Laerm;62979;55.720;37.606;2023-08-24T10:16:07;57.88;49.78;73.11;;
74496;Laerm;62979;55.720;37.606;2023-08-24T10:18:36;56.18;48.76;69.09;;
74496;Laerm;62979;55.720;37.606;2023-08-24T10:21:04;60.06;49.38;74.55;;
74496;Laerm;62979;55.720;37.606;2023-08-24T10:23:34;55.65;46.14;63.51;;
74496;Laerm;62979;55.720;37.606;2023-08-24T10:26:03;56.00;47.73;67.99;;
74496;Laerm;62979;55.720;37.606;2023-08-24T10:28:32;57.90;47.00;72.83;;
74496;Laerm;62979;55.720;37.606;2023-08-24T10:31:01;55.12;46.99;63.09;;
74496;Laerm;62979;55.720;37.606;2023-08-24T10:33:30;55.75;48.29;75.54;;
74496;Laerm;62979;55.720;37.606;2023-08-24T10:35:58;56.41;47.28;63.85;;
74496;Laerm;62979;55.720;37.606;2023-08-24T10:38:25;56.02;45.04;73.91;;
74496;Laerm;62979;55.720;37.606;2023-08-24T10:40:53;55.73;48.13;64.97;;
74496;Laerm;62979;55.720;37.606;2023-08-24T10:43:22;54.38;48.60;63.30;;
74496;Laerm;62979;55.720;37.606;2023-08-24T10:45:58;56.86;51.35;69.09;;
74496;Laerm;62979;55.720;37.606;2023-08-24T10:48:28;62.16;47.55;82.12;;
74496;Laerm;62979;55.720;37.606;2023-08-24T10:51:18;57.73;48.32;70.11;;
74496;Laerm;62979;55.720;37.606;2023-08-24T10:53:53;56.10;49.28;70.35;;
74496;Laerm;62979;55.720;37.606;2023-08-24T10:56:24;56.95;48.65;67.22;;
74496;Laerm;62979;55.720;37.606;2023-08-24T10:59:10;54.60;48.41;75.13;;
74496;Laerm;62979;55.720;37.606;2023-08-24T11:01:41;54.51;48.31;63.85;;
74496;Laerm;62979;55.720;37.606;2023-08-24T11:04:10;63.44;52.68;75.87;;
74496;Laerm;62979;55.720;37.606;2023-08-24T11:06:52;56.13;49.45;63.77;;
74496;Laerm;62979;55.720;37.606;2023-08-24T11:09:20;56.89;47.82;66.08;;
74496;Laerm;62979;55.720;37.606;2023-08-24T11:11:58;55.99;48.23;62.85;;
74496;Laerm;62979;55.720;37.606;2023-08-24T11:14:25;54.59;46.12;61.28;;
74496;Laerm;62979;55.720;37.606;2023-08-24T11:16:58;55.11;47.92;67.87;;
74496;Laerm;62979;55.720;37.606;2023-08-24T11:19:26;55.03;47.05;63.36;;
74496;Laerm;62979;55.720;37.606;2023-08-24T11:21:53;55.29;48.26;67.66;;
74496;Laerm;62979;55.720;37.606;2023-08-24T11:24:21;55.49;49.19;63.24;;
74496;Laerm;62979;55.720;37.606;2023-08-24T11:26:48;56.61;47.53;67.05;;
74496;Laerm;62979;55.720;37.606;2023-08-24T11:29:17;56.44;47.15;77.54;;
74496;Laerm;62979;55.720;37.606;2023-08-24T11:31:44;56.44;50.77;65.38;;
74496;Laerm;62979;55.720;37.606;2023-08-24T11:34:15;56.97;49.48;67.21;;
74496;Laerm;62979;55.720;37.606;2023-08-24T11:36:43;57.13;50.07;65.47;;
74496;Laerm;62979;55.720;37.606;2023-08-24T11:39:16;57.68;50.94;75.93;;
74496;Laerm;62979;55.720;37.606;2023-08-24T11:41:45;57.91;50.93;72.17;;
74496;Laerm;62979;55.720;37.606;2023-08-24T11:44:14;56.46;48.77;69.20;;
74496;Laerm;62979;55.720;37.606;2023-08-24T11:46:40;57.71;48.75;71.55;;
74496;Laerm;62979;55.720;37.606;2023-08-24T11:49:08;57.51;50.36;70.79;;
74496;Laerm;62979;55.720;37.606;2023-08-24T11:51:38;58.35;50.18;72.80;;
74496;Laerm;62979;55.720;37.606;2023-08-24T11:54:06;56.92;50.01;66.70;;
74496;Laerm;62979;55.720;37.606;2023-08-24T11:56:41;56.59;50.03;65.43;;
74496;Laerm;62979;55.720;37.606;2023-08-24T11:59:12;63.12;54.90;75.29;;
74496;Laerm;62979;55.720;37.606;2023-08-24T12:01:41;61.83;51.59;78.96;;
74496;Laerm;62979;55.720;37.606;2023-08-24T12:04:09;68.79;49.68;90.21;;
74496;Laerm;62979;55.720;37.606;2023-08-24T12:06:39;59.43;52.78;78.54;;
74496;Laerm;62979;55.720;37.606;2023-08-24T12:09:06;61.11;52.64;71.90;;
74496;Laerm;62979;55.720;37.606;2023-08-24T12:11:36;66.27;58.36;78.89;;
74496;Laerm;62979;55.720;37.606;2023-08-24T12:14:04;63.73;59.22;77.50;;
74496;Laerm;62979;55.720;37.606;2023-08-24T12:16:35;66.81;59.96;75.46;;
74496;Laerm;62979;55.720;37.606;2023-08-24T12:19:02;65.28;56.86;83.85;;
74496;Laerm;62979;55.720;37.606;2023-08-24T12:21:33;59.68;50.75;66.53;;
74496;Laerm;62979;55.720;37.606;2023-08-24T12:24:04;58.41;47.19;67.90;;
74496;Laerm;62979;55.720;37.606;2023-08-24T12:26:32;65.16;54.91;80.32;;
74496;Laerm;62979;55.720;37.606;2023-08-24T12:29:02;63.53;60.45;69.84;;
74496;Laerm;62979;55.720;37.606;2023-08-24T12:31:30;61.58;55.80;69.49;;
74496;Laerm;62979;55.720;37.606;2023-08-24T12:34:01;63.94;52.85;71.47;;
74496;Laerm;62979;55.720;37.606;2023-08-24T12:36:30;56.03;48.06;71.47;;
74496;Laerm;62979;55.720;37.606;2023-08-24T12:38:58;55.21;47.04;62.02;;
74496;Laerm;62979;55.720;37.606;2023-08-24T12:41:26;54.51;46.02;64.41;;
74496;Laerm;62979;55.720;37.606;2023-08-24T12:43:53;63.84;51.04;76.54;;
74496;Laerm;62979;55.720;37.606;2023-08-24T12:46:20;63.63;56.36;77.29;;
74496;Laerm;62979;55.720;37.606;2023-08-24T12:48:47;63.54;57.97;70.12;;
74496;Laerm;62979;55.720;37.606;2023-08-24T12:51:14;60.20;53.97;69.57;;
74496;Laerm;62979;55.720;37.606;2023-08-24T12:53:41;63.03;56.27;78.79;;
74496;Laerm;62979;55.720;37.606;2023-08-24T12:56:08;66.14;60.29;73.95;;
74496;Laerm;62979;55.720;37.606;2023-08-24T12:58:36;66.65;61.13;74.82;;
74496;Laerm;62979;55.720;37.606;2023-08-24T13:01:03;67.20;61.62;72.81;;
74496;Laerm;62979;55.720;37.606;2023-08-24T13:03:30;66.12;59.64;72.93;;
74496;Laerm;62979;55.720;37.606;2023-08-24T13:05:57;58.05;48.29;67.37;;
74496;Laerm;62979;55.720;37.606;2023-08-24T13:08:24;59.34;49.48;75.08;;
74496;Laerm;62979;55.720;37.606;2023-08-24T13:10:52;58.09;46.89;79.33;;
74496;Laerm;62979;55.720;37.606;2023-08-24T13:13:18;54.02;45.18;71.56;;
74496;Laerm;62979;55.720;37.606;2023-08-24T13:15:49;55.81;46.53;74.85;;
74496;Laerm;62979;55.720;37.606;2023-08-24T13:18:16;57.16;49.09;73.16;;
74496;Laerm;62979;55.720;37.606;2023-08-24T13:20:43;57.22;47.98;79.98;;
74496;Laerm;62979;55.720;37.606;2023-08-24T13:23:10;55.80;46.99;63.13;;
74496;Laerm;62979;55.720;37.606;2023-08-24T13:25:37;55.41;46.40;64.50;;
74496;Laerm;62979;55.720;37.606;2023-08-24T13:28:04;56.89;46.29;76.16;;
74496;Laerm;62979;55.720;37.606;2023-08-24T13:30:31;55.96;46.84;65.86;;
74496;Laerm;62979;55.720;37.606;2023-08-24T13:32:59;54.44;47.87;61.81;;
74496;Laerm;62979;55.720;37.606;2023-08-24T13:35:26;53.18;46.73;76.09;;
74496;Laerm;62979;55.720;37.606;2023-08-24T13:37:53;56.60;48.78;64.72;;